Time,TemperatureF,DewpointF,PressureIn,WindDirection,WindDirectionDegrees,WindSpeedMPH,WindSpeedGustMPH,Humidity,HourlyPrecipIn,Conditions,Clouds,dailyrainin,SoftwareType,DateUTC
2013-12-14 00:01:00,10.8,-0.7,30.24,ENE,68,2.0,4.3,59,0.00,,,0.00,VWS V14.01,2013-12-14 06:01:00,
2013-12-14 00:06:00,10.8,-0.7,30.27,NE,45,2.7,2.9,59,0.00,,,0.00,VWS V14.01,2013-12-14 06:06:00,
2013-12-14 00:11:00,10.8,-0.7,30.27,ENE,68,0.0,2.9,59,0.00,,,0.00,VWS V14.01,2013-12-14 06:11:00,
2013-12-14 00:16:00,10.8,-0.7,30.27,ENE,68,2.2,4.3,59,0.00,,,0.00,VWS V14.01,2013-12-14 06:16:00,
2013-12-14 00:21:00,10.6,-0.9,30.27,ENE,68,2.0,2.9,59,0.00,,,0.00,VWS V14.01,2013-12-14 06:21:00,
2013-12-14 00:26:00,10.6,-0.9,30.27,ENE,68,2.5,3.4,59,0.00,,,0.00,VWS V14.01,2013-12-14 06:26:00,
2013-12-14 00:31:00,10.6,-0.9,30.27,NE,45,1.6,3.8,59,0.00,,,0.00,VWS V14.01,2013-12-14 06:31:00,
2013-12-14 00:36:00,10.6,-0.9,30.24,ENE,68,3.4,4.0,59,0.00,,,0.00,VWS V14.01,2013-12-14 06:36:00,
2013-12-14 00:41:00,10.4,-1.1,30.24,NE,45,2.5,3.4,59,0.00,,,0.00,VWS V14.01,2013-12-14 06:41:00,
2013-12-14 00:46:00,10.4,-1.1,30.24,NNE,22,3.4,3.4,59,0.00,,,0.00,VWS V14.01,2013-12-14 06:46:00,
2013-12-14 00:51:00,10.4,-1.1,30.24,NE,45,0.9,0.9,59,0.00,,,0.00,VWS V14.01,2013-12-14 06:51:00,
2013-12-14 00:56:00,10.4,-1.1,30.24,ENE,68,3.8,3.8,59,0.00,,,0.00,VWS V14.01,2013-12-14 06:56:00,
2013-12-14 01:01:00,10.4,-1.1,30.21,ENE,68,1.3,3.1,59,0.00,,,0.00,VWS V14.01,2013-12-14 07:01:00,
2013-12-14 01:06:00,10.4,-1.1,30.21,NNE,22,2.0,2.0,59,0.00,,,0.00,VWS V14.01,2013-12-14 07:06:00,
2013-12-14 01:11:00,10.4,-1.1,30.21,East,90,1.6,3.4,59,0.00,,,0.00,VWS V14.01,2013-12-14 07:11:00,
2013-12-14 01:17:00,10.2,-1.2,30.24,NE,45,4.0,4.0,59,0.00,,,0.00,VWS V14.01,2013-12-14 07:17:00,
2013-12-14 01:22:00,10.2,-1.2,30.24,NE,45,2.0,3.1,59,0.00,,,0.00,VWS V14.01,2013-12-14 07:22:00,
2013-12-14 01:27:00,10.2,-1.2,30.24,ENE,68,4.3,4.3,59,0.00,,,0.00,VWS V14.01,2013-12-14 07:27:00,
2013-12-14 01:32:00,10.2,-1.2,30.24,East,90,3.6,3.6,59,0.00,,,0.00,VWS V14.01,2013-12-14 07:32:00,
2013-12-14 01:37:00,10.2,-1.2,30.24,NE,45,1.3,1.3,59,0.00,,,0.00,VWS V14.01,2013-12-14 07:37:00,
2013-12-14 01:42:00,10.4,-1.1,30.24,NE,45,2.9,3.1,59,0.00,,,0.00,VWS V14.01,2013-12-14 07:42:00,
2013-12-14 01:47:00,10.4,-1.1,30.24,ENE,68,0.9,2.5,59,0.00,,,0.00,VWS V14.01,2013-12-14 07:47:00,
2013-12-14 01:52:00,10.4,-1.1,30.24,NNE,22,2.2,3.1,59,0.00,,,0.00,VWS V14.01,2013-12-14 07:52:00,
2013-12-14 01:57:00,10.4,-1.1,30.24,East,90,1.6,2.0,59,0.00,,,0.00,VWS V14.01,2013-12-14 07:57:00,
2013-12-14 02:02:00,10.4,-1.1,30.24,ENE,68,1.6,3.1,59,0.00,,,0.00,VWS V14.01,2013-12-14 08:02:00,
2013-12-14 02:07:00,10.4,-1.1,30.24,ENE,68,4.0,4.0,59,0.00,,,0.00,VWS V14.01,2013-12-14 08:07:00,
2013-12-14 02:12:00,10.4,-1.1,30.24,NE,45,3.4,3.8,59,0.00,,,0.00,VWS V14.01,2013-12-14 08:12:00,
2013-12-14 02:17:00,10.4,-1.1,30.21,ENE,68,1.3,2.9,59,0.00,,,0.00,VWS V14.01,2013-12-14 08:17:00,
2013-12-14 02:22:00,10.4,-1.1,30.21,ENE,68,2.7,2.7,59,0.00,,,0.00,VWS V14.01,2013-12-14 08:22:00,
2013-12-14 02:27:00,10.4,-1.1,30.21,ENE,68,2.0,4.0,59,0.00,,,0.00,VWS V14.01,2013-12-14 08:27:00,
2013-12-14 02:32:00,10.2,-1.2,30.24,ENE,68,6.0,6.0,59,0.00,,,0.00,VWS V14.01,2013-12-14 08:32:00,
2013-12-14 02:37:00,10.2,-1.2,30.24,NE,45,3.6,3.6,59,0.00,,,0.00,VWS V14.01,2013-12-14 08:37:00,
2013-12-14 02:42:00,10.2,-1.2,30.24,NE,45,3.6,3.6,59,0.00,,,0.00,VWS V14.01,2013-12-14 08:42:00,
2013-12-14 02:48:00,10.2,-1.2,30.24,East,90,3.6,3.6,59,0.00,,,0.00,VWS V14.01,2013-12-14 08:48:00,
2013-12-14 02:53:00,10.2,-1.2,30.24,ENE,68,2.5,3.6,59,0.00,,,0.00,VWS V14.01,2013-12-14 08:53:00,
2013-12-14 02:58:00,10.2,-1.2,30.24,ENE,68,2.0,3.6,59,0.00,,,0.00,VWS V14.01,2013-12-14 08:58:00,
2013-12-14 03:03:00,10.2,-1.2,30.24,NE,45,2.5,3.6,59,0.00,,,0.00,VWS V14.01,2013-12-14 09:03:00,
2013-12-14 03:08:00,10.2,-1.2,30.24,ENE,68,2.0,3.6,59,0.00,,,0.00,VWS V14.01,2013-12-14 09:08:00,
2013-12-14 03:13:00,10.0,-1.4,30.24,NE,45,2.0,4.3,59,0.00,,,0.00,VWS V14.01,2013-12-14 09:13:00,
2013-12-14 03:18:00,10.0,-1.4,30.24,ENE,68,2.5,2.7,59,0.00,,,0.00,VWS V14.01,2013-12-14 09:18:00,
2013-12-14 03:23:00,10.0,-1.4,30.24,NE,45,2.5,4.3,59,0.00,,,0.00,VWS V14.01,2013-12-14 09:23:00,
2013-12-14 03:28:00,10.0,-1.4,30.24,NNE,22,0.0,2.5,59,0.00,,,0.00,VWS V14.01,2013-12-14 09:28:00,
2013-12-14 03:33:00,10.0,-1.4,30.21,ENE,68,2.0,2.5,59,0.00,,,0.00,VWS V14.01,2013-12-14 09:33:00,
2013-12-14 03:38:00,10.0,-1.4,30.21,ENE,68,2.9,3.6,59,0.00,,,0.00,VWS V14.01,2013-12-14 09:38:00,
2013-12-14 03:43:00,10.0,-1.4,30.21,ENE,68,3.1,3.1,59,0.00,,,0.00,VWS V14.01,2013-12-14 09:43:00,
2013-12-14 03:48:00,10.0,-1.4,30.21,East,90,2.7,4.3,59,0.00,,,0.00,VWS V14.01,2013-12-14 09:48:00,
2013-12-14 03:53:00,10.0,-1.4,30.21,ENE,68,0.0,3.6,59,0.00,,,0.00,VWS V14.01,2013-12-14 09:53:00,
2013-12-14 03:58:00,10.0,-1.4,30.21,ENE,68,2.0,2.7,59,0.00,,,0.00,VWS V14.01,2013-12-14 09:58:00,
2013-12-14 04:03:00,10.0,-1.4,30.21,ENE,68,0.9,2.5,59,0.00,,,0.00,VWS V14.01,2013-12-14 10:03:00,
2013-12-14 04:08:00,10.0,-1.4,30.21,NE,45,1.6,2.9,59,0.00,,,0.00,VWS V14.01,2013-12-14 10:08:00,
2013-12-14 04:13:00,10.0,-1.4,30.21,ENE,68,1.1,2.7,59,0.00,,,0.00,VWS V14.01,2013-12-14 10:13:00,
2013-12-14 04:19:00,10.0,-1.4,30.21,ENE,68,2.0,2.0,59,0.00,,,0.00,VWS V14.01,2013-12-14 10:19:00,
2013-12-14 04:24:00,10.2,-1.2,30.21,ENE,68,2.0,2.5,59,0.00,,,0.00,VWS V14.01,2013-12-14 10:24:00,
2013-12-14 04:29:00,10.2,-1.2,30.21,ENE,68,2.2,3.8,59,0.00,,,0.00,VWS V14.01,2013-12-14 10:29:00,
2013-12-14 04:34:00,10.2,-1.2,30.18,ENE,68,1.6,2.5,59,0.00,,,0.00,VWS V14.01,2013-12-14 10:34:00,
2013-12-14 04:39:00,10.2,-1.2,30.18,ENE,68,2.0,3.4,59,0.00,,,0.00,VWS V14.01,2013-12-14 10:39:00,
2013-12-14 04:44:00,10.2,-1.2,30.18,NE,45,2.2,3.1,59,0.00,,,0.00,VWS V14.01,2013-12-14 10:44:00,
2013-12-14 04:49:00,10.2,-1.2,30.18,ENE,68,2.5,3.4,59,0.00,,,0.00,VWS V14.01,2013-12-14 10:49:00,
2013-12-14 04:54:00,10.2,-1.2,30.18,NE,45,1.1,2.9,59,0.00,,,0.00,VWS V14.01,2013-12-14 10:54:00,
2013-12-14 04:59:00,10.2,-1.2,30.18,NE,45,2.5,3.6,59,0.00,,,0.00,VWS V14.01,2013-12-14 10:59:00,
2013-12-14 05:04:00,10.2,-1.2,30.18,East,90,1.6,2.0,59,0.00,,,0.00,VWS V14.01,2013-12-14 11:04:00,
2013-12-14 05:09:00,10.2,-1.2,30.18,ENE,68,2.9,3.6,59,0.00,,,0.00,VWS V14.01,2013-12-14 11:09:00,
2013-12-14 05:14:00,10.2,-1.2,30.18,ENE,68,2.0,3.1,59,0.00,,,0.00,VWS V14.01,2013-12-14 11:14:00,
2013-12-14 05:19:00,10.2,-1.2,30.18,ENE,68,2.0,2.7,59,0.00,,,0.00,VWS V14.01,2013-12-14 11:19:00,
2013-12-14 05:24:00,10.2,-1.2,30.18,NNE,22,2.7,2.7,59,0.00,,,0.00,VWS V14.01,2013-12-14 11:24:00,
2013-12-14 05:29:00,10.2,-1.2,30.18,NE,45,1.3,3.4,59,0.00,,,0.00,VWS V14.01,2013-12-14 11:29:00,
2013-12-14 05:35:00,10.4,-1.1,30.18,ENE,68,0.0,3.4,59,0.00,,,0.00,VWS V14.01,2013-12-14 11:35:00,
2013-12-14 05:40:00,10.4,-1.1,30.18,NE,45,1.6,2.7,59,0.00,,,0.00,VWS V14.01,2013-12-14 11:40:00,
2013-12-14 05:45:00,10.4,-1.1,30.18,NE,45,2.0,2.5,59,0.00,,,0.00,VWS V14.01,2013-12-14 11:45:00,
2013-12-14 05:50:00,10.4,-1.1,30.18,East,90,2.7,3.1,59,0.00,,,0.00,VWS V14.01,2013-12-14 11:50:00,
2013-12-14 05:55:00,10.4,-1.1,30.18,ENE,68,2.5,3.1,59,0.00,,,0.00,VWS V14.01,2013-12-14 11:55:00,
2013-12-14 06:00:00,10.4,-1.1,30.18,NNE,22,3.4,3.8,59,0.00,,,0.00,VWS V14.01,2013-12-14 12:00:00,
2013-12-14 06:05:00,10.4,-1.1,30.18,ENE,68,1.3,3.1,59,0.00,,,0.00,VWS V14.01,2013-12-14 12:05:00,
2013-12-14 06:10:00,10.4,-1.1,30.18,NE,45,2.9,3.6,59,0.00,,,0.00,VWS V14.01,2013-12-14 12:10:00,
2013-12-14 06:15:00,10.4,-1.1,30.18,ENE,68,2.0,3.8,59,0.00,,,0.00,VWS V14.01,2013-12-14 12:15:00,
2013-12-14 06:20:00,10.4,-1.1,30.18,NE,45,1.3,3.8,59,0.00,,,0.00,VWS V14.01,2013-12-14 12:20:00,
2013-12-14 06:25:00,10.4,-1.1,30.18,ENE,68,2.0,2.7,59,0.00,,,0.00,VWS V14.01,2013-12-14 12:25:00,
2013-12-14 06:30:00,10.4,-1.1,30.18,ENE,68,1.6,2.9,59,0.00,,,0.00,VWS V14.01,2013-12-14 12:30:00,
2013-12-14 06:35:00,10.4,-1.1,30.18,NNE,22,1.6,2.2,59,0.00,,,0.00,VWS V14.01,2013-12-14 12:35:00,
2013-12-14 06:40:00,10.4,-1.1,30.18,ENE,68,2.0,3.1,59,0.00,,,0.00,VWS V14.01,2013-12-14 12:40:00,
2013-12-14 06:45:00,10.4,-1.1,30.18,ENE,68,0.0,3.4,59,0.00,,,0.00,VWS V14.01,2013-12-14 12:45:00,
2013-12-14 06:51:00,10.4,-1.1,30.18,ENE,68,1.3,3.6,59,0.00,,,0.00,VWS V14.01,2013-12-14 12:51:00,
2013-12-14 06:56:00,10.4,-1.1,30.18,ENE,68,1.6,3.6,59,0.00,,,0.00,VWS V14.01,2013-12-14 12:56:00,
2013-12-14 07:01:00,10.4,-1.1,30.18,NNE,22,0.9,3.6,59,0.00,,,0.00,VWS V14.01,2013-12-14 13:01:00,
2013-12-14 07:06:00,10.4,-1.1,30.18,ENE,68,2.5,3.8,59,0.00,,,0.00,VWS V14.01,2013-12-14 13:06:00,
2013-12-14 07:11:00,10.4,-1.1,30.18,ENE,68,2.0,2.7,59,0.00,,,0.00,VWS V14.01,2013-12-14 13:11:00,
2013-12-14 07:16:00,10.4,-1.1,30.18,NE,45,0.0,2.0,59,0.00,,,0.00,VWS V14.01,2013-12-14 13:16:00,
2013-12-14 07:21:00,10.4,-1.1,30.18,ENE,68,2.0,2.7,59,0.00,,,0.00,VWS V14.01,2013-12-14 13:21:00,
2013-12-14 07:26:00,10.4,-1.1,30.18,NE,45,1.3,1.3,59,0.00,,,0.00,VWS V14.01,2013-12-14 13:26:00,
2013-12-14 07:31:00,10.4,-1.1,30.15,ENE,68,2.5,2.5,59,0.00,,,0.00,VWS V14.01,2013-12-14 13:31:00,
2013-12-14 07:36:00,10.4,-1.1,30.15,ENE,68,1.1,1.1,59,0.00,,,0.00,VWS V14.01,2013-12-14 13:36:00,
2013-12-14 07:41:00,10.6,-0.9,30.15,ENE,68,0.9,0.9,59,0.00,,,0.00,VWS V14.01,2013-12-14 13:41:00,
2013-12-14 07:46:00,10.6,-0.9,30.18,East,90,0.0,0.0,59,0.00,,,0.00,VWS V14.01,2013-12-14 13:46:00,
2013-12-14 07:51:00,10.8,-0.7,30.18,NNW,338,0.0,0.0,59,0.00,,,0.00,VWS V14.01,2013-12-14 13:51:00,
2013-12-14 07:56:00,10.8,-0.7,30.18,ENE,68,1.1,1.1,59,0.00,,,0.00,VWS V14.01,2013-12-14 13:56:00,
2013-12-14 08:01:00,10.8,-0.7,30.18,ENE,68,0.9,0.9,59,0.00,,,0.00,VWS V14.01,2013-12-14 14:01:00,
2013-12-14 08:06:00,10.8,-0.7,30.18,NNE,22,1.3,1.3,59,0.00,,,0.00,VWS V14.01,2013-12-14 14:06:00,
2013-12-14 08:12:00,10.9,-0.6,30.18,ENE,68,0.9,1.1,59,0.00,,,0.00,VWS V14.01,2013-12-14 14:12:00,
2013-12-14 08:17:00,10.9,-0.6,30.21,ENE,68,0.0,0.9,59,0.00,,,0.00,VWS V14.01,2013-12-14 14:17:00,
2013-12-14 08:22:00,10.9,-0.6,30.21,ENE,68,0.0,2.0,59,0.00,,,0.00,VWS V14.01,2013-12-14 14:22:00,
2013-12-14 08:27:00,10.9,-0.6,30.21,ENE,68,0.0,0.0,59,0.00,,,0.00,VWS V14.01,2013-12-14 14:27:00,
2013-12-14 08:32:00,11.1,-0.4,30.21,ENE,68,0.0,0.0,59,0.00,,,0.00,VWS V14.01,2013-12-14 14:32:00,
2013-12-14 08:37:00,11.1,-0.4,30.21,ENE,68,0.0,2.0,59,0.00,,,0.00,VWS V14.01,2013-12-14 14:37:00,
2013-12-14 08:42:00,11.1,-0.4,30.21,ENE,68,1.6,2.0,59,0.00,,,0.00,VWS V14.01,2013-12-14 14:42:00,
2013-12-14 08:47:00,11.1,-0.4,30.18,NE,45,1.1,2.2,59,0.00,,,0.00,VWS V14.01,2013-12-14 14:47:00,
2013-12-14 08:52:00,11.3,-0.2,30.18,NNE,22,0.9,2.5,59,0.00,,,0.00,VWS V14.01,2013-12-14 14:52:00,
2013-12-14 08:57:00,11.5,-0.1,30.18,ENE,68,1.1,2.5,59,0.00,,,0.00,VWS V14.01,2013-12-14 14:57:00,
2013-12-14 09:02:00,11.7,0.1,30.18,NE,45,0.0,1.6,59,0.00,,,0.00,VWS V14.01,2013-12-14 15:02:00,
2013-12-14 09:07:00,11.7,0.1,30.18,ENE,68,0.0,0.0,59,0.00,,,0.00,VWS V14.01,2013-12-14 15:07:00,
2013-12-14 09:12:00,11.8,0.3,30.18,ENE,68,0.0,0.0,59,0.00,,,0.00,VWS V14.01,2013-12-14 15:12:00,
2013-12-14 09:17:00,11.8,0.3,30.18,ENE,68,0.0,0.0,59,0.00,,,0.00,VWS V14.01,2013-12-14 15:17:00,
2013-12-14 09:22:00,12.0,0.4,30.18,ENE,68,0.0,1.6,59,0.00,,,0.00,VWS V14.01,2013-12-14 15:22:00,
2013-12-14 09:27:00,12.2,0.6,30.18,ENE,68,1.1,1.6,59,0.00,,,0.00,VWS V14.01,2013-12-14 15:27:00,
2013-12-14 09:32:00,12.4,0.8,30.18,ESE,112,0.0,2.5,59,0.00,,,0.00,VWS V14.01,2013-12-14 15:32:00,
2013-12-14 09:38:00,12.6,1.0,30.18,ENE,68,0.9,1.3,59,0.00,,,0.00,VWS V14.01,2013-12-14 15:38:00,
2013-12-14 09:43:00,12.6,1.0,30.18,ENE,68,2.7,3.1,59,0.00,,,0.00,VWS V14.01,2013-12-14 15:43:00,
2013-12-14 09:48:00,12.7,1.1,30.15,ENE,68,0.0,1.6,59,0.00,,,0.00,VWS V14.01,2013-12-14 15:48:00,
2013-12-14 09:53:00,12.9,1.3,30.15,NE,45,1.6,2.9,59,0.00,,,0.00,VWS V14.01,2013-12-14 15:53:00,
2013-12-14 09:58:00,12.9,1.3,30.15,NNE,22,2.5,2.9,59,0.00,,,0.00,VWS V14.01,2013-12-14 15:58:00,
2013-12-14 10:03:00,12.9,1.3,30.21,NE,45,0.9,0.9,59,0.00,,,0.00,VWS V14.01,2013-12-14 16:03:00,
2013-12-14 10:08:00,13.3,1.6,30.21,ENE,68,0.0,0.0,59,0.00,,,0.00,VWS V14.01,2013-12-14 16:08:00,
2013-12-14 10:13:00,13.6,2.0,30.21,ENE,68,1.6,2.0,59,0.00,,,0.00,VWS V14.01,2013-12-14 16:13:00,
2013-12-14 10:18:00,13.8,2.2,30.18,ENE,68,0.0,2.0,59,0.00,,,0.00,VWS V14.01,2013-12-14 16:18:00,
2013-12-14 10:23:00,13.8,2.2,30.18,NNE,22,1.6,2.5,59,0.00,,,0.00,VWS V14.01,2013-12-14 16:23:00,
2013-12-14 10:28:00,14.0,8.4,30.18,NE,45,1.6,2.9,78,0.00,,,0.00,VWS V14.01,2013-12-14 16:28:00,
2013-12-14 10:33:00,14.2,8.3,30.18,NE,45,1.3,3.4,77,0.00,,,0.00,VWS V14.01,2013-12-14 16:33:00,
2013-12-14 10:38:00,14.4,8.5,30.18,NE,45,1.1,2.5,77,0.00,,,0.00,VWS V14.01,2013-12-14 16:38:00,
2013-12-14 10:43:00,14.4,8.5,30.18,NE,45,1.3,2.7,77,0.00,,,0.00,VWS V14.01,2013-12-14 16:43:00,
2013-12-14 10:48:00,14.5,8.7,30.18,ENE,68,2.2,3.4,77,0.00,,,0.00,VWS V14.01,2013-12-14 16:48:00,
2013-12-14 10:53:00,14.9,9.0,30.18,ENE,68,2.0,2.0,77,0.00,,,0.00,VWS V14.01,2013-12-14 16:53:00,
2013-12-14 10:58:00,15.1,8.9,30.18,ENE,68,0.0,2.0,76,0.00,,,0.00,VWS V14.01,2013-12-14 16:58:00,
2013-12-14 11:04:00,15.4,9.2,30.15,ENE,68,2.2,2.2,76,0.00,,,0.00,VWS V14.01,2013-12-14 17:04:00,
2013-12-14 11:09:00,15.4,9.2,30.15,ENE,68,2.5,2.7,76,0.00,,,0.00,VWS V14.01,2013-12-14 17:09:00,
2013-12-14 11:14:00,15.4,8.9,30.15,ENE,68,1.6,2.9,75,0.00,,,0.00,VWS V14.01,2013-12-14 17:14:00,
2013-12-14 11:19:00,15.8,9.3,30.15,ENE,68,2.2,3.1,75,0.00,,,0.00,VWS V14.01,2013-12-14 17:19:00,
2013-12-14 11:24:00,16.0,9.2,30.15,NNE,22,0.9,2.2,74,0.00,,,0.00,VWS V14.01,2013-12-14 17:24:00,
2013-12-14 11:29:00,16.0,9.2,30.15,NE,45,0.0,2.9,74,0.00,,,0.00,VWS V14.01,2013-12-14 17:29:00,
2013-12-14 11:34:00,16.2,9.4,30.12,NE,45,0.0,2.5,74,0.00,,,0.00,VWS V14.01,2013-12-14 17:34:00,
2013-12-14 11:39:00,16.2,9.4,30.12,ENE,68,1.3,2.0,74,0.00,,,0.00,VWS V14.01,2013-12-14 17:39:00,
2013-12-14 11:44:00,16.2,9.4,30.12,NNE,22,0.0,2.7,74,0.00,,,0.00,VWS V14.01,2013-12-14 17:44:00,
2013-12-14 11:49:00,16.3,9.2,30.12,NE,45,0.0,1.3,73,0.00,,,0.00,VWS V14.01,2013-12-14 17:49:00,
2013-12-14 11:54:00,16.9,9.7,30.12,NE,45,2.2,2.2,73,0.00,,,0.00,VWS V14.01,2013-12-14 17:54:00,
2013-12-14 11:59:00,16.7,9.6,30.12,NNW,338,1.3,1.3,73,0.00,,,0.00,VWS V14.01,2013-12-14 17:59:00,
2013-12-14 12:04:00,16.7,9.6,30.12,NE,45,0.0,2.5,73,0.00,,,0.00,VWS V14.01,2013-12-14 18:04:00,
2013-12-14 12:09:00,16.7,9.6,30.12,NE,45,2.0,2.0,73,0.00,,,0.00,VWS V14.01,2013-12-14 18:09:00,
2013-12-14 12:14:00,16.7,9.6,30.12,NE,45,0.0,0.0,73,0.00,,,0.00,VWS V14.01,2013-12-14 18:14:00,
2013-12-14 12:19:00,16.7,9.6,30.12,NE,45,0.0,2.7,73,0.00,,,0.00,VWS V14.01,2013-12-14 18:19:00,
2013-12-14 12:24:00,16.9,9.7,30.12,ENE,68,0.0,2.0,73,0.00,,,0.00,VWS V14.01,2013-12-14 18:24:00,
2013-12-14 12:29:00,17.1,9.9,30.12,NE,45,1.3,2.5,73,0.00,,,0.00,VWS V14.01,2013-12-14 18:29:00,
2013-12-14 12:35:00,17.4,10.3,30.09,East,90,0.0,2.2,73,0.00,,,0.00,VWS V14.01,2013-12-14 18:35:00,
2013-12-14 12:40:00,17.8,10.3,30.09,ENE,68,0.0,2.2,72,0.00,,,0.00,VWS V14.01,2013-12-14 18:40:00,
2013-12-14 12:45:00,17.8,10.0,30.09,SW,225,0.0,2.0,71,0.00,,,0.00,VWS V14.01,2013-12-14 18:45:00,
2013-12-14 12:50:00,17.8,10.0,30.09,NE,45,0.0,2.2,71,0.00,,,0.00,VWS V14.01,2013-12-14 18:50:00,
2013-12-14 12:55:00,17.8,10.0,30.09,NE,45,1.6,1.6,71,0.00,,,0.00,VWS V14.01,2013-12-14 18:55:00,
2013-12-14 13:00:00,17.8,10.0,30.09,ENE,68,0.0,2.0,71,0.00,,,0.00,VWS V14.01,2013-12-14 19:00:00,
2013-12-14 13:06:00,18.1,10.3,30.06,ENE,68,0.0,0.0,71,0.00,,,0.00,VWS V14.01,2013-12-14 19:06:00,
2013-12-14 13:11:00,18.3,10.5,30.06,ENE,68,0.0,0.0,71,0.00,,,0.00,VWS V14.01,2013-12-14 19:11:00,
2013-12-14 13:16:00,18.9,11.0,30.06,ENE,68,0.0,0.0,71,0.00,,,0.00,VWS V14.01,2013-12-14 19:16:00,
2013-12-14 13:21:00,19.2,11.4,30.06,ENE,68,0.0,0.0,71,0.00,,,0.00,VWS V14.01,2013-12-14 19:21:00,
2013-12-14 13:26:00,19.2,11.1,30.06,ENE,68,1.1,3.1,70,0.00,,,0.00,VWS V14.01,2013-12-14 19:26:00,
2013-12-14 13:31:00,18.7,10.2,30.06,WNW,292,1.1,2.0,69,0.00,,,0.00,VWS V14.01,2013-12-14 19:31:00,
2013-12-14 13:36:00,18.1,9.7,30.06,NNW,338,1.1,2.2,69,0.00,,,0.00,VWS V14.01,2013-12-14 19:36:00,
2013-12-14 13:41:00,18.0,9.5,30.06,SSW,202,1.6,3.1,69,0.00,,,0.00,VWS V14.01,2013-12-14 19:41:00,
2013-12-14 13:46:00,18.1,10.0,30.03,NNE,22,0.0,0.0,70,0.00,,,0.00,VWS V14.01,2013-12-14 19:46:00,
2013-12-14 13:51:00,18.3,10.2,30.03,SSE,158,0.0,1.3,70,0.00,,,0.00,VWS V14.01,2013-12-14 19:51:00,
2013-12-14 13:56:00,18.3,10.2,30.03,NNW,338,1.1,1.6,70,0.00,,,0.00,VWS V14.01,2013-12-14 19:56:00,
2013-12-14 14:01:00,18.1,10.0,30.06,WSW,248,0.0,0.0,70,0.00,,,0.00,VWS V14.01,2013-12-14 20:01:00,
2013-12-14 14:06:00,18.0,9.8,30.06,South,180,0.0,0.0,70,0.00,,,0.00,VWS V14.01,2013-12-14 20:06:00,
2013-12-14 14:11:00,17.8,10.0,30.06,NNW,338,2.5,5.6,71,0.00,,,0.00,VWS V14.01,2013-12-14 20:11:00,
2013-12-14 14:16:00,17.6,10.1,30.06,WNW,292,2.7,2.7,72,0.00,,,0.00,VWS V14.01,2013-12-14 20:16:00,
2013-12-14 14:21:00,16.9,9.4,30.06,SSW,202,1.1,3.8,72,0.00,,,0.00,VWS V14.01,2013-12-14 20:21:00,
2013-12-14 14:26:00,16.5,9.1,30.06,South,180,1.3,3.8,72,0.00,,,0.00,VWS V14.01,2013-12-14 20:26:00,
2013-12-14 14:31:00,16.5,9.4,30.06,South,180,2.2,2.2,73,0.00,,,0.00,VWS V14.01,2013-12-14 20:31:00,
2013-12-14 14:37:00,16.2,9.0,30.06,South,180,2.5,4.0,73,0.00,,,0.00,VWS V14.01,2013-12-14 20:37:00,
2013-12-14 14:42:00,15.8,8.7,30.06,NNW,338,6.0,6.0,73,0.00,,,0.00,VWS V14.01,2013-12-14 20:42:00,
2013-12-14 14:47:00,15.4,8.4,30.06,West,270,2.7,6.0,73,0.00,,,0.00,VWS V14.01,2013-12-14 20:47:00,
2013-12-14 14:52:00,15.3,8.2,30.06,NNW,338,1.3,2.7,73,0.00,,,0.00,VWS V14.01,2013-12-14 20:52:00,
2013-12-14 14:57:00,15.1,8.0,30.06,NNW,338,0.0,2.5,73,0.00,,,0.00,VWS V14.01,2013-12-14 20:57:00,
2013-12-14 15:02:00,15.1,8.0,30.03,North,0,1.3,2.0,73,0.00,,,0.00,VWS V14.01,2013-12-14 21:02:00,
2013-12-14 15:07:00,15.1,8.0,30.03,SW,225,2.0,2.0,73,0.00,,,0.00,VWS V14.01,2013-12-14 21:07:00,
2013-12-14 15:12:00,15.1,8.3,30.03,NE,45,0.0,1.3,74,0.00,,,0.00,VWS V14.01,2013-12-14 21:12:00,
2013-12-14 15:17:00,15.1,8.3,30.06,WSW,248,2.9,2.9,74,0.00,,,0.00,VWS V14.01,2013-12-14 21:17:00,
2013-12-14 15:22:00,14.9,8.1,30.06,WSW,248,0.9,2.5,74,0.00,,,0.00,VWS V14.01,2013-12-14 21:22:00,
2013-12-14 15:27:00,14.9,8.1,30.06,NW,315,1.6,2.2,74,0.00,,,0.00,VWS V14.01,2013-12-14 21:27:00,
2013-12-14 15:32:00,14.7,7.9,30.06,WNW,292,2.0,2.0,74,0.00,,,0.00,VWS V14.01,2013-12-14 21:32:00,
2013-12-14 15:37:00,14.5,7.8,30.06,SSE,158,0.0,0.0,74,0.00,,,0.00,VWS V14.01,2013-12-14 21:37:00,
2013-12-14 15:42:00,14.5,8.1,30.06,WSW,248,0.0,0.0,75,0.00,,,0.00,VWS V14.01,2013-12-14 21:42:00,
2013-12-14 15:47:00,14.5,8.1,30.06,SSW,202,2.7,2.7,75,0.00,,,0.00,VWS V14.01,2013-12-14 21:47:00,
2013-12-14 15:52:00,14.4,7.9,30.06,NW,315,1.3,1.3,75,0.00,,,0.00,VWS V14.01,2013-12-14 21:52:00,
2013-12-14 15:57:00,14.2,7.7,30.06,WNW,292,0.0,4.9,75,0.00,,,0.00,VWS V14.01,2013-12-14 21:57:00,
2013-12-14 16:02:00,14.2,8.0,30.06,NW,315,0.0,2.2,76,0.00,,,0.00,VWS V14.01,2013-12-14 22:02:00,
2013-12-14 16:08:00,14.0,7.8,30.06,NNW,338,0.0,2.2,76,0.00,,,0.00,VWS V14.01,2013-12-14 22:08:00,
2013-12-14 16:13:00,13.8,7.7,30.06,South,180,0.0,0.0,76,0.00,,,0.00,VWS V14.01,2013-12-14 22:13:00,
2013-12-14 16:18:00,13.8,7.7,30.03,SW,225,1.3,2.2,76,0.00,,,0.00,VWS V14.01,2013-12-14 22:18:00,
2013-12-14 16:23:00,13.6,7.5,30.03,South,180,1.3,2.7,76,0.00,,,0.00,VWS V14.01,2013-12-14 22:23:00,
2013-12-14 16:28:00,13.6,7.5,30.03,South,180,0.0,2.0,76,0.00,,,0.00,VWS V14.01,2013-12-14 22:28:00,
2013-12-14 16:33:00,13.5,7.3,30.03,NNE,22,0.0,0.0,76,0.00,,,0.00,VWS V14.01,2013-12-14 22:33:00,
2013-12-14 16:38:00,13.5,7.3,30.03,WNW,292,1.3,1.6,76,0.00,,,0.00,VWS V14.01,2013-12-14 22:38:00,
2013-12-14 16:43:00,13.5,7.3,30.03,WSW,248,0.0,1.6,76,0.00,,,0.00,VWS V14.01,2013-12-14 22:43:00,
2013-12-14 16:48:00,13.5,7.3,30.03,NNE,22,2.5,2.7,76,0.00,,,0.00,VWS V14.01,2013-12-14 22:48:00,
2013-12-14 16:53:00,13.5,7.3,30.03,South,180,0.0,1.3,76,0.00,,,0.00,VWS V14.01,2013-12-14 22:53:00,
2013-12-14 16:58:00,13.3,7.1,30.03,SW,225,0.0,1.6,76,0.00,,,0.00,VWS V14.01,2013-12-14 22:58:00,
2013-12-14 17:03:00,13.3,7.1,30.03,WNW,292,1.3,1.6,76,0.00,,,0.00,VWS V14.01,2013-12-14 23:03:00,
2013-12-14 17:08:00,13.3,7.1,30.03,ENE,68,0.0,2.5,76,0.00,,,0.00,VWS V14.01,2013-12-14 23:08:00,
2013-12-14 17:13:00,13.3,7.1,30.03,WSW,248,2.0,3.1,76,0.00,,,0.00,VWS V14.01,2013-12-14 23:13:00,
2013-12-14 17:18:00,13.3,7.1,30.03,SW,225,0.9,2.9,76,0.00,,,0.00,VWS V14.01,2013-12-14 23:18:00,
2013-12-14 17:23:00,13.3,7.1,30.03,WNW,292,2.0,2.5,76,0.00,,,0.00,VWS V14.01,2013-12-14 23:23:00,
2013-12-14 17:29:00,13.3,7.1,30.03,NNW,338,0.0,0.9,76,0.00,,,0.00,VWS V14.01,2013-12-14 23:29:00,
2013-12-14 17:34:00,13.3,7.1,30.03,SSW,202,0.0,3.1,76,0.00,,,0.00,VWS V14.01,2013-12-14 23:34:00,
2013-12-14 17:39:00,13.3,7.1,30.03,WNW,292,0.0,1.1,76,0.00,,,0.00,VWS V14.01,2013-12-14 23:39:00,
2013-12-14 17:44:00,13.3,7.1,30.03,SSE,158,1.1,1.6,76,0.00,,,0.00,VWS V14.01,2013-12-14 23:44:00,
2013-12-14 17:49:00,13.3,7.1,30.03,East,90,1.3,2.2,76,0.00,,,0.00,VWS V14.01,2013-12-14 23:49:00,
2013-12-14 17:54:00,13.3,7.1,30.03,NNW,338,2.0,2.7,76,0.00,,,0.00,VWS V14.01,2013-12-14 23:54:00,
2013-12-14 17:59:00,13.3,7.1,30.03,NNE,22,1.1,3.8,76,0.00,,,0.00,VWS V14.01,2013-12-14 23:59:00,
2013-12-14 18:04:00,13.3,7.1,30.00,NNW,338,1.1,2.9,76,0.00,,,0.00,VWS V14.01,2013-12-15 00:04:00,
2013-12-14 18:09:00,13.3,7.1,30.00,North,0,1.1,2.2,76,0.00,,,0.00,VWS V14.01,2013-12-15 00:09:00,
2013-12-14 18:14:00,13.3,7.1,30.00,WSW,248,3.4,3.4,76,0.00,,,0.00,VWS V14.01,2013-12-15 00:14:00,
2013-12-14 18:19:00,13.3,7.1,30.03,NW,315,2.2,4.0,76,0.00,,,0.00,VWS V14.01,2013-12-15 00:19:00,
2013-12-14 18:24:00,13.3,7.1,30.03,NNW,338,1.3,3.1,76,0.00,,,0.00,VWS V14.01,2013-12-15 00:24:00,
2013-12-14 18:29:00,13.1,7.0,30.03,SSW,202,1.3,3.4,76,0.00,,,0.00,VWS V14.01,2013-12-15 00:29:00,
2013-12-14 18:34:00,13.1,7.0,30.03,WNW,292,2.5,4.3,76,0.00,,,0.00,VWS V14.01,2013-12-15 00:34:00,
2013-12-14 18:39:00,13.1,7.0,30.03,WNW,292,1.6,3.8,76,0.00,,,0.00,VWS V14.01,2013-12-15 00:39:00,
2013-12-14 18:45:00,12.9,6.8,30.03,West,270,2.5,2.7,76,0.00,,,0.00,VWS V14.01,2013-12-15 00:45:00,
2013-12-14 18:50:00,12.9,6.8,30.00,SSW,202,3.4,3.8,76,0.00,,,0.00,VWS V14.01,2013-12-15 00:50:00,
2013-12-14 18:55:00,12.9,6.8,30.00,NNW,338,2.2,3.4,76,0.00,,,0.00,VWS V14.01,2013-12-15 00:55:00,
2013-12-14 19:00:00,12.9,6.8,30.00,NW,315,1.1,3.8,76,0.00,,,0.00,VWS V14.01,2013-12-15 01:00:00,
2013-12-14 19:05:00,12.7,6.6,30.00,SSW,202,2.5,3.6,76,0.00,,,0.00,VWS V14.01,2013-12-15 01:05:00,
2013-12-14 19:10:00,12.7,6.6,30.00,West,270,2.9,2.9,76,0.00,,,0.00,VWS V14.01,2013-12-15 01:10:00,
2013-12-14 19:15:00,12.7,6.6,30.00,South,180,1.3,3.1,76,0.00,,,0.00,VWS V14.01,2013-12-15 01:15:00,
2013-12-14 19:20:00,12.6,6.4,30.00,NNE,22,2.9,4.7,76,0.00,,,0.00,VWS V14.01,2013-12-15 01:20:00,
2013-12-14 19:25:00,12.6,6.4,30.00,SE,135,0.9,2.9,76,0.00,,,0.00,VWS V14.01,2013-12-15 01:25:00,
2013-12-14 19:30:00,12.6,6.4,30.00,SSW,202,2.2,3.6,76,0.00,,,0.00,VWS V14.01,2013-12-15 01:30:00,
2013-12-14 19:35:00,12.6,6.4,30.00,NNW,338,3.8,3.8,76,0.00,,,0.00,VWS V14.01,2013-12-15 01:35:00,
2013-12-14 19:40:00,12.6,6.4,30.00,WNW,292,1.6,4.0,76,0.00,,,0.00,VWS V14.01,2013-12-15 01:40:00,
2013-12-14 19:45:00,12.4,6.3,30.00,NNW,338,2.5,4.7,76,0.00,,,0.00,VWS V14.01,2013-12-15 01:45:00,
2013-12-14 19:50:00,12.2,6.1,30.00,East,90,2.0,3.6,76,0.00,,,0.00,VWS V14.01,2013-12-15 01:50:00,
2013-12-14 19:55:00,12.2,6.1,30.00,South,180,1.1,3.1,76,0.00,,,0.00,VWS V14.01,2013-12-15 01:55:00,
2013-12-14 20:01:00,12.2,6.1,30.00,West,270,2.5,5.4,76,0.00,,,0.00,VWS V14.01,2013-12-15 02:01:00,
2013-12-14 20:06:00,12.2,6.1,29.97,North,0,1.3,3.6,76,0.00,,,0.00,VWS V14.01,2013-12-15 02:06:00,
2013-12-14 20:11:00,12.2,6.1,29.97,South,180,2.9,3.8,76,0.00,,,0.00,VWS V14.01,2013-12-15 02:11:00,
2013-12-14 20:16:00,12.0,5.9,29.97,NNW,338,0.0,2.9,76,0.00,,,0.00,VWS V14.01,2013-12-15 02:16:00,
2013-12-14 20:21:00,12.0,5.9,30.00,WSW,248,2.0,3.1,76,0.00,,,0.00,VWS V14.01,2013-12-15 02:21:00,
2013-12-14 20:26:00,12.0,5.9,30.00,NNE,22,1.1,2.9,76,0.00,,,0.00,VWS V14.01,2013-12-15 02:26:00,
2013-12-14 20:31:00,12.0,5.9,30.00,ENE,68,1.1,2.0,76,0.00,,,0.00,VWS V14.01,2013-12-15 02:31:00,
2013-12-14 20:36:00,11.7,5.6,30.00,WNW,292,3.1,3.1,76,0.00,,,0.00,VWS V14.01,2013-12-15 02:36:00,
2013-12-14 20:41:00,11.5,5.4,30.00,North,0,2.9,2.9,76,0.00,,,0.00,VWS V14.01,2013-12-15 02:41:00,
2013-12-14 20:46:00,11.3,5.2,30.00,NNW,338,4.0,4.0,76,0.00,,,0.00,VWS V14.01,2013-12-15 02:46:00,
2013-12-14 20:51:00,11.1,5.1,30.00,NNW,338,1.6,3.8,76,0.00,,,0.00,VWS V14.01,2013-12-15 02:51:00,
2013-12-14 20:56:00,10.9,4.9,30.00,NNW,338,5.8,5.8,76,0.00,,,0.00,VWS V14.01,2013-12-15 02:56:00,
2013-12-14 21:01:00,10.8,4.7,30.00,SSE,158,2.2,3.1,76,0.00,,,0.00,VWS V14.01,2013-12-15 03:01:00,
2013-12-14 21:06:00,10.8,4.7,30.00,SSW,202,3.6,4.9,76,0.00,,,0.00,VWS V14.01,2013-12-15 03:06:00,
2013-12-14 21:11:00,10.4,4.3,30.00,WSW,248,3.8,4.0,76,0.00,,,0.00,VWS V14.01,2013-12-15 03:11:00,
2013-12-14 21:16:00,10.4,4.3,29.97,NNW,338,3.6,3.6,76,0.00,,,0.00,VWS V14.01,2013-12-15 03:16:00,
2013-12-14 21:21:00,10.2,4.2,29.97,SSE,158,2.9,2.9,76,0.00,,,0.00,VWS V14.01,2013-12-15 03:21:00,
2013-12-14 21:27:00,10.0,4.0,29.97,West,270,3.4,3.4,76,0.00,,,0.00,VWS V14.01,2013-12-15 03:27:00,
2013-12-14 21:32:00,9.7,3.7,30.00,West,270,3.4,4.7,76,0.00,,,0.00,VWS V14.01,2013-12-15 03:32:00,
2013-12-14 21:37:00,9.5,3.5,30.00,North,0,0.9,3.6,76,0.00,,,0.00,VWS V14.01,2013-12-15 03:37:00,
2013-12-14 21:42:00,9.5,3.5,30.00,West,270,3.1,4.9,76,0.00,,,0.00,VWS V14.01,2013-12-15 03:42:00,
2013-12-14 21:47:00,9.3,3.3,30.00,West,270,2.7,4.0,76,0.00,,,0.00,VWS V14.01,2013-12-15 03:47:00,
2013-12-14 21:52:00,9.1,3.1,30.00,West,270,6.3,6.3,76,0.00,,,0.00,VWS V14.01,2013-12-15 03:52:00,
2013-12-14 21:57:00,9.1,3.1,30.00,WSW,248,2.9,6.0,76,0.00,,,0.00,VWS V14.01,2013-12-15 03:57:00,
2013-12-14 22:02:00,9.0,3.0,30.00,WSW,248,3.6,4.9,76,0.00,,,0.00,VWS V14.01,2013-12-15 04:02:00,
2013-12-14 22:07:00,8.8,2.8,30.00,SW,225,4.7,4.7,76,0.00,,,0.00,VWS V14.01,2013-12-15 04:07:00,
2013-12-14 22:12:00,8.6,2.6,30.00,SSW,202,2.5,4.9,76,0.00,,,0.00,VWS V14.01,2013-12-15 04:12:00,
2013-12-14 22:17:00,8.4,2.4,29.97,NW,315,2.9,4.0,76,0.00,,,0.00,VWS V14.01,2013-12-15 04:17:00,
2013-12-14 22:22:00,8.2,2.2,29.97,ENE,68,2.5,4.0,76,0.00,,,0.00,VWS V14.01,2013-12-15 04:22:00,
2013-12-14 22:27:00,8.1,2.1,29.97,ESE,112,2.5,2.9,76,0.00,,,0.00,VWS V14.01,2013-12-15 04:27:00,
2013-12-14 22:32:00,8.1,2.1,30.00,NNW,338,2.9,2.9,76,0.00,,,0.00,VWS V14.01,2013-12-15 04:32:00,
2013-12-14 22:37:00,7.9,1.9,30.00,WNW,292,2.0,4.3,76,0.00,,,0.00,VWS V14.01,2013-12-15 04:37:00,
2013-12-14 22:42:00,7.9,1.9,30.00,NNW,338,2.2,5.4,76,0.00,,,0.00,VWS V14.01,2013-12-15 04:42:00,
2013-12-14 22:47:00,7.7,1.7,29.97,SSE,158,1.3,3.1,76,0.00,,,0.00,VWS V14.01,2013-12-15 04:47:00,
2013-12-14 22:53:00,7.7,1.7,29.97,NNW,338,2.0,4.0,76,0.00,,,0.00,VWS V14.01,2013-12-15 04:53:00,
2013-12-14 22:58:00,7.5,1.5,29.97,WSW,248,5.6,5.6,76,0.00,,,0.00,VWS V14.01,2013-12-15 04:58:00,
2013-12-14 23:01:00,7.5,1.5,29.97,NNE,22,2.2,6.0,76,0.00,,,0.00,VWS V14.01,2013-12-15 05:01:00,
2013-12-14 23:02:00,7.5,1.5,30.00,WSW,248,2.9,3.4,76,0.00,,,0.00,VWS V14.01,2013-12-15 05:02:00,
2013-12-14 23:03:00,7.5,1.5,30.00,South,180,0.0,3.4,76,0.00,,,0.00,VWS V14.01,2013-12-15 05:03:00,
2013-12-14 23:04:00,7.5,1.5,30.00,South,180,2.0,3.4,76,0.00,,,0.00,VWS V14.01,2013-12-15 05:04:00,
2013-12-14 23:09:00,7.3,1.4,30.00,WNW,292,2.5,3.6,76,0.00,,,0.00,VWS V14.01,2013-12-15 05:09:00,
2013-12-14 23:14:00,7.3,1.4,30.00,SSE,158,2.5,4.7,76,0.00,,,0.00,VWS V14.01,2013-12-15 05:14:00,
2013-12-14 23:19:00,7.2,1.2,30.00,West,270,3.4,6.0,76,0.00,,,0.00,VWS V14.01,2013-12-15 05:19:00,
2013-12-14 23:24:00,7.2,1.2,30.00,SSW,202,2.5,3.6,76,0.00,,,0.00,VWS V14.01,2013-12-15 05:24:00,
2013-12-14 23:30:00,7.0,1.0,30.00,North,0,1.1,4.9,76,0.00,,,0.00,VWS V14.01,2013-12-15 05:30:00,
2013-12-14 23:35:00,7.0,1.0,30.00,SSE,158,1.3,5.8,76,0.00,,,0.00,VWS V14.01,2013-12-15 05:35:00,
2013-12-14 23:40:00,6.8,0.9,30.00,WNW,292,4.0,6.0,76,0.00,,,0.00,VWS V14.01,2013-12-15 05:40:00,
2013-12-14 23:45:00,6.8,0.9,30.00,WSW,248,3.4,3.6,76,0.00,,,0.00,VWS V14.01,2013-12-15 05:45:00,
2013-12-14 23:50:00,6.4,0.5,30.00,SW,225,1.1,4.9,76,0.00,,,0.00,VWS V14.01,2013-12-15 05:50:00,
2013-12-14 23:55:00,6.4,0.5,30.00,NW,315,1.3,4.5,76,0.00,,,0.00,VWS V14.01,2013-12-15 05:55:00,